Time;durP1;ratioP1;P1;durP2;ratioP2;P2;SDS_P1;SDS_P2;PMS_P1;PMS_P2;Temp;Humidity;BMP_temperature;BMP_pressure;BME280_temperature;BME280_humidity;BME280_pressure;Samples;Min_cycle;Max_cycle;Signal;HPM_P1;HPM_P2
2023/03/03 00:01:29;;;;;;;20.20;14.03;;;3.20;99.90;;;;;;5095265;28;20261;-60
2023/03/03 00:03:55;;;;;;;21.87;14.50;;;3.10;99.90;;;;;;5095234;28;20177;-60
2023/03/03 00:06:21;;;;;;;21.80;14.20;;;3.00;99.90;;;;;;5095131;28;20188;-60
2023/03/03 00:08:46;;;;;;;22.27;14.17;;;3.00;99.90;;;;;;5095021;28;20209;-60
2023/03/03 00:11:12;;;;;;;21.77;14.67;;;3.00;99.90;;;;;;5094857;28;20208;-60
2023/03/03 00:13:49;;;;;;;23.67;14.60;;;3.00;99.90;;;;;;5094800;28;20177;-59
2023/03/03 00:16:20;;;;;;;21.83;14.67;;;3.00;99.90;;;;;;5094888;28;20556;-60
2023/03/03 00:18:46;;;;;;;22.43;15.20;;;3.00;99.90;;;;;;5094941;28;20169;-60
2023/03/03 00:21:28;;;;;;;23.17;14.47;;;3.10;99.90;;;;;;5094827;28;20239;-60
2023/03/03 00:23:57;;;;;;;25.07;15.67;;;3.10;99.90;;;;;;5094624;28;20194;-60
2023/03/03 00:26:33;;;;;;;22.53;14.57;;;3.10;99.90;;;;;;5094876;28;20639;-60
2023/03/03 00:29:00;;;;;;;27.93;16.53;;;3.00;99.90;;;;;;5094673;28;20166;-60
2023/03/03 00:31:33;;;;;;;23.60;15.77;;;3.00;99.90;;;;;;5094634;28;20216;-60
2023/03/03 00:34:14;;;;;;;24.67;15.87;;;3.00;99.90;;;;;;5094454;28;20200;-60
2023/03/03 00:36:40;;;;;;;23.33;16.60;;;3.00;99.90;;;;;;5094597;28;20239;-60
2023/03/03 00:39:35;;;;;;;26.37;16.87;;;3.00;99.90;;;;;;5094443;28;20205;-60
2023/03/03 00:42:03;;;;;;;26.03;16.07;;;3.00;99.90;;;;;;5094370;28;20180;-60
2023/03/03 00:45:01;;;;;;;27.23;17.40;;;3.00;99.90;;;;;;5094157;28;20178;-60
2023/03/03 00:47:34;;;;;;;29.13;17.70;;;3.00;99.90;;;;;;5094176;28;20295;-60
2023/03/03 00:50:06;;;;;;;27.47;16.93;;;2.90;99.90;;;;;;5094348;28;20202;-60
2023/03/03 00:52:42;;;;;;;25.47;16.47;;;3.00;99.90;;;;;;5094069;28;20268;-60
2023/03/03 00:55:10;;;;;;;27.97;17.33;;;3.10;99.90;;;;;;5094073;28;20200;-60
2023/03/03 00:57:35;;;;;;;24.43;16.50;;;3.10;99.90;;;;;;5094001;28;20587;-60
2023/03/03 01:00:01;;;;;;;26.07;18.10;;;3.10;99.90;;;;;;5094178;28;20177;-60
2023/03/03 01:02:27;;;;;;;25.93;17.90;;;3.00;99.90;;;;;;5093618;28;20177;-60
2023/03/03 01:04:55;;;;;;;28.03;18.63;;;3.00;99.90;;;;;;5093952;28;20216;-60
2023/03/03 01:07:21;;;;;;;28.95;19.00;;;3.10;99.90;;;;;;5093760;28;20185;-60
2023/03/03 01:09:47;;;;;;;31.50;19.77;;;3.10;99.90;;;;;;5093777;28;20244;-60
2023/03/03 01:12:13;;;;;;;29.27;18.57;;;3.00;99.90;;;;;;5093953;28;20175;-60
2023/03/03 01:14:39;;;;;;;28.43;18.70;;;3.00;99.90;;;;;;5093769;28;20181;-60
2023/03/03 01:17:05;;;;;;;31.10;18.93;;;3.00;99.90;;;;;;5093804;28;20218;-60
2023/03/03 01:19:31;;;;;;;29.73;18.60;;;3.00;99.90;;;;;;5093573;28;20178;-60
2023/03/03 01:21:57;;;;;;;30.80;17.90;;;2.90;99.90;;;;;;5093839;28;20678;-60
2023/03/03 01:24:23;;;;;;;26.80;17.70;;;2.80;99.90;;;;;;5092157;28;20207;-60
2023/03/03 01:26:49;;;;;;;27.17;18.80;;;2.80;99.90;;;;;;5093762;28;20237;-60
2023/03/03 01:29:14;;;;;;;28.30;18.23;;;2.80;99.90;;;;;;5093663;28;20181;-60
2023/03/03 01:31:40;;;;;;;32.03;18.43;;;2.70;99.90;;;;;;5093476;28;20208;-60
2023/03/03 01:34:06;;;;;;;29.07;19.47;;;2.80;99.90;;;;;;5093485;28;20178;-60
2023/03/03 01:36:33;;;;;;;32.97;19.50;;;2.80;99.90;;;;;;5093317;28;20728;-60
2023/03/03 01:38:59;;;;;;;31.53;20.53;;;2.80;99.90;;;;;;5093324;28;20263;-60
2023/03/03 01:41:31;;;;;;;31.33;20.27;;;2.80;99.90;;;;;;5093380;28;20223;-60
2023/03/03 01:43:56;;;;;;;32.70;20.40;;;2.80;99.90;;;;;;5093460;28;20173;-60
2023/03/03 01:46:54;;;;;;;36.10;21.97;;;2.80;99.90;;;;;;5093349;28;20174;-60
2023/03/03 01:49:32;;;;;;;35.97;22.17;;;2.80;99.90;;;;;;5085493;28;20182;-60
2023/03/03 01:52:02;;;;;;;33.40;21.50;;;2.80;99.90;;;;;;5093328;28;20237;-60
2023/03/03 01:54:38;;;;;;;34.90;21.93;;;2.80;99.90;;;;;;5093445;28;20192;-60
2023/03/03 01:57:10;;;;;;;35.57;22.63;;;2.80;99.90;;;;;;5093261;28;20215;-59
2023/03/03 01:59:39;;;;;;;36.43;21.73;;;2.70;99.90;;;;;;5093149;28;20233;-60
2023/03/03 02:02:05;;;;;;;35.87;22.33;;;2.70;99.90;;;;;;5093039;28;20250;-60
2023/03/03 02:04:33;;;;;;;38.60;24.30;;;2.70;99.90;;;;;;5093138;28;20182;-60
2023/03/03 02:07:08;;;;;;;35.63;22.10;;;2.60;99.90;;;;;;5093170;28;20177;-60
2023/03/03 02:10:08;;;;;;;37.20;21.93;;;2.60;99.90;;;;;;5093087;28;20170;-60
2023/03/03 02:12:39;;;;;;;33.43;22.23;;;2.50;99.90;;;;;;5091885;28;20177;-60
2023/03/03 02:15:34;;;;;;;37.03;22.27;;;2.60;99.90;;;;;;5096608;28;20235;-60
2023/03/03 02:18:15;;;;;;;36.30;22.70;;;2.50;99.90;;;;;;5095666;28;20651;-60
2023/03/03 02:20:51;;;;;;;35.20;22.97;;;2.60;99.90;;;;;;5097002;28;20174;-60
2023/03/03 02:23:42;;;;;;;36.30;22.97;;;2.50;99.90;;;;;;5096877;28;20228;-60
2023/03/03 02:26:28;;;;;;;38.13;22.87;;;2.60;99.90;;;;;;5096933;28;20257;-60
2023/03/03 02:28:54;;;;;;;35.77;22.40;;;2.50;99.90;;;;;;5096851;28;20169;-60
2023/03/03 02:31:23;;;;;;;35.73;21.20;;;2.40;99.90;;;;;;5095837;28;20177;-60
2023/03/03 02:33:50;;;;;;;36.10;22.30;;;2.40;99.90;;;;;;5096889;28;20310;-60
2023/03/03 02:36:22;;;;;;;38.07;23.00;;;2.40;99.90;;;;;;5096770;28;20216;-60
2023/03/03 02:38:56;;;;;;;34.47;22.90;;;2.40;99.90;;;;;;5096628;28;20532;-60
2023/03/03 02:41:26;;;;;;;38.80;22.03;;;2.50;99.90;;;;;;5096683;28;20227;-60
2023/03/03 02:44:02;;;;;;;38.77;24.13;;;2.40;99.90;;;;;;5096745;28;20231;-60
2023/03/03 02:46:32;;;;;;;39.57;23.80;;;2.40;99.90;;;;;;5096626;28;20186;-64
2023/03/03 02:48:58;;;;;;;37.20;23.37;;;2.40;99.90;;;;;;5096609;28;20180;-60
2023/03/03 02:51:23;;;;;;;37.67;24.00;;;2.40;99.90;;;;;;5096239;28;20188;-60
2023/03/03 02:53:49;;;;;;;36.17;21.63;;;2.40;99.90;;;;;;5096359;28;20307;-60
2023/03/03 02:56:15;;;;;;;38.03;23.03;;;2.30;99.90;;;;;;5096622;28;20205;-60
2023/03/03 02:58:41;;;;;;;36.23;21.07;;;2.30;99.90;;;;;;5096506;28;20182;-60
2023/03/03 03:01:06;;;;;;;36.50;21.53;;;2.30;99.90;;;;;;5096396;28;20183;-60
2023/03/03 03:03:32;;;;;;;38.73;22.30;;;2.30;99.90;;;;;;5096287;28;20181;-60
2023/03/03 03:05:58;;;;;;;35.00;21.40;;;2.20;99.90;;;;;;5096225;28;20181;-60
2023/03/03 03:08:23;;;;;;;35.40;21.50;;;2.20;99.90;;;;;;5096110;28;20188;-60
2023/03/03 03:10:50;;;;;;;33.50;21.33;;;2.20;99.90;;;;;;5096067;28;20182;-60
2023/03/03 03:13:15;;;;;;;34.10;21.43;;;2.20;99.90;;;;;;5096025;28;20181;-60
2023/03/03 03:15:41;;;;;;;35.70;21.10;;;2.20;99.90;;;;;;5096118;28;20275;-60
2023/03/03 03:18:07;;;;;;;37.03;22.07;;;2.10;99.90;;;;;;5096053;28;20178;-60
2023/03/03 03:20:38;;;;;;;34.07;20.87;;;2.10;99.90;;;;;;5095740;28;20517;-60
2023/03/03 03:23:04;;;;;;;34.47;20.37;;;2.10;99.90;;;;;;5095998;28;20232;-60
2023/03/03 03:25:30;;;;;;;34.53;21.10;;;2.00;99.90;;;;;;5095778;28;20189;-60
2023/03/03 03:27:56;;;;;;;32.40;21.07;;;2.00;99.90;;;;;;5095993;28;20262;-60
2023/03/03 03:30:21;;;;;;;34.20;20.67;;;2.00;99.90;;;;;;5095685;28;20658;-60
2023/03/03 03:32:47;;;;;;;32.37;20.80;;;2.00;99.90;;;;;;5095683;28;20205;-60
2023/03/03 03:35:13;;;;;;;30.93;19.47;;;2.00;99.90;;;;;;5095574;28;20287;-60
2023/03/03 03:37:39;;;;;;;32.50;20.80;;;2.00;99.90;;;;;;5095478;28;20180;-60
2023/03/03 03:40:05;;;;;;;32.73;19.67;;;1.90;99.90;;;;;;5095408;28;20624;-60
2023/03/03 03:42:31;;;;;;;32.80;20.47;;;2.00;99.90;;;;;;5095460;28;20177;-60
2023/03/03 03:44:57;;;;;;;31.53;18.80;;;2.00;99.90;;;;;;5095576;28;20586;-60
2023/03/03 03:47:22;;;;;;;28.27;18.77;;;2.00;99.90;;;;;;5095363;28;20163;-60
2023/03/03 03:49:48;;;;;;;28.30;19.00;;;2.00;99.90;;;;;;5095282;28;20559;-60
2023/03/03 03:52:14;;;;;;;28.87;19.27;;;2.00;99.90;;;;;;5095250;28;20184;-60
2023/03/03 03:54:40;;;;;;;27.73;17.57;;;2.00;99.90;;;;;;5095183;28;20183;-60
2023/03/03 03:57:06;;;;;;;25.63;17.40;;;2.00;99.90;;;;;;5095115;28;20572;-60
2023/03/03 03:59:31;;;;;;;27.27;16.63;;;2.00;99.90;;;;;;5095284;28;20175;-60
2023/03/03 04:01:57;;;;;;;26.37;17.67;;;2.00;99.90;;;;;;5095200;28;20188;-60
2023/03/03 04:04:23;;;;;;;24.87;17.57;;;2.00;99.90;;;;;;5095110;28;20210;-60
2023/03/03 04:06:48;;;;;;;23.80;17.13;;;2.00;99.90;;;;;;5095015;28;20636;-60
2023/03/03 04:09:14;;;;;;;23.53;17.53;;;2.10;99.90;;;;;;5095197;28;20177;-60
2023/03/03 04:11:40;;;;;;;26.37;16.83;;;2.00;99.90;;;;;;5095147;28;20173;-60
2023/03/03 04:14:06;;;;;;;24.10;15.77;;;2.00;99.90;;;;;;5094985;28;20174;-60
2023/03/03 04:16:32;;;;;;;23.90;16.27;;;2.00;99.90;;;;;;5094849;28;20295;-60
2023/03/03 04:18:57;;;;;;;21.03;14.97;;;2.00;99.90;;;;;;5093577;28;20212;-60
2023/03/03 04:21:24;;;;;;;25.87;16.30;;;2.10;99.90;;;;;;5094943;28;20188;-60
2023/03/03 04:23:49;;;;;;;22.33;16.17;;;2.00;99.90;;;;;;5094398;28;20226;-60
2023/03/03 04:26:15;;;;;;;21.53;15.43;;;2.10;99.90;;;;;;5094847;28;20263;-60
2023/03/03 04:28:41;;;;;;;22.83;15.97;;;2.10;99.90;;;;;;5094774;28;20652;-60
2023/03/03 04:31:06;;;;;;;22.30;16.03;;;2.10;99.90;;;;;;5094736;28;20200;-60
2023/03/03 04:33:32;;;;;;;25.13;16.57;;;2.10;99.90;;;;;;5094711;28;20185;-60
2023/03/03 04:35:58;;;;;;;23.23;16.20;;;2.00;99.90;;;;;;5092565;28;20217;-60
2023/03/03 04:38:24;;;;;;;21.73;16.40;;;2.00;99.90;;;;;;5094263;28;20535;-60
2023/03/03 04:40:49;;;;;;;25.50;17.53;;;2.10;99.90;;;;;;5094511;28;20179;-60
2023/03/03 04:43:15;;;;;;;39.87;24.50;;;2.00;99.90;;;;;;5094320;28;20173;-60
2023/03/03 04:45:41;;;;;;;49.30;27.73;;;2.10;99.90;;;;;;5094164;28;20185;-60
2023/03/03 04:48:07;;;;;;;49.17;30.60;;;2.10;99.90;;;;;;5094583;28;20210;-60
2023/03/03 04:50:33;;;;;;;46.57;28.60;;;2.10;99.90;;;;;;5094050;28;20231;-60
2023/03/03 04:52:59;;;;;;;44.43;28.53;;;2.10;99.90;;;;;;5094276;28;20186;-60
2023/03/03 04:55:25;;;;;;;40.67;25.47;;;2.00;99.90;;;;;;5094073;28;20223;-60
2023/03/03 04:57:50;;;;;;;40.60;27.23;;;2.10;99.90;;;;;;5094231;28;20188;-60
2023/03/03 05:00:16;;;;;;;45.20;28.50;;;2.10;99.90;;;;;;5093991;28;20178;-60
2023/03/03 05:02:42;;;;;;;43.87;29.00;;;2.10;99.90;;;;;;5093101;28;20209;-60
2023/03/03 05:05:09;;;;;;;41.70;25.47;;;2.00;99.90;;;;;;5093898;28;20181;-61
2023/03/03 05:07:35;;;;;;;33.23;21.97;;;2.00;99.90;;;;;;5093777;28;20181;-61
2023/03/03 05:10:01;;;;;;;29.03;21.53;;;1.80;99.90;;;;;;5093813;28;20513;-60
2023/03/03 05:12:27;;;;;;;29.53;20.40;;;1.70;99.90;;;;;;5093903;28;20205;-60
2023/03/03 05:14:53;;;;;;;31.47;21.43;;;1.80;99.90;;;;;;5093694;28;20639;-60
2023/03/03 05:17:18;;;;;;;28.27;19.90;;;1.70;99.90;;;;;;5093800;28;20233;-60
2023/03/03 05:19:44;;;;;;;27.67;20.07;;;1.60;99.90;;;;;;5093583;28;20196;-61
2023/03/03 05:22:10;;;;;;;29.77;20.10;;;1.60;99.90;;;;;;5093623;28;20229;-61
2023/03/03 05:24:35;;;;;;;30.03;20.67;;;1.60;99.90;;;;;;5093549;28;20181;-61
2023/03/03 05:27:02;;;;;;;34.13;22.20;;;1.60;99.90;;;;;;5093530;28;20193;-60
2023/03/03 05:29:30;;;;;;;39.47;24.10;;;1.70;99.90;;;;;;5093548;28;20190;-60
2023/03/03 05:31:59;;;;;;;34.93;23.27;;;1.60;99.90;;;;;;5093424;28;20188;-60
2023/03/03 05:34:25;;;;;;;32.53;20.83;;;1.60;99.90;;;;;;5093296;28;20185;-60
2023/03/03 05:36:51;;;;;;;33.17;20.40;;;1.60;99.90;;;;;;5093598;28;20337;-60
2023/03/03 05:39:16;;;;;;;28.03;19.17;;;1.70;99.90;;;;;;5093838;28;20268;-60
2023/03/03 05:41:42;;;;;;;32.57;21.00;;;1.60;99.90;;;;;;5093547;28;20209;-60
2023/03/03 05:44:08;;;;;;;30.87;19.37;;;1.60;99.90;;;;;;5093417;28;20184;-61
2023/03/03 05:46:34;;;;;;;32.67;19.90;;;1.50;99.90;;;;;;5093335;28;20267;-60
2023/03/03 05:49:00;;;;;;;30.93;18.60;;;1.50;99.90;;;;;;5093168;28;20172;-60
2023/03/03 05:51:25;;;;;;;32.80;19.60;;;1.40;99.90;;;;;;5093380;28;20177;-60
2023/03/03 05:53:51;;;;;;;31.13;18.60;;;1.50;99.90;;;;;;5093757;28;20173;-60
2023/03/03 05:56:16;;;;;;;28.97;18.67;;;1.50;99.90;;;;;;5093169;28;20575;-60
2023/03/03 05:58:42;;;;;;;32.37;19.73;;;1.50;99.90;;;;;;5093161;28;20242;-60
2023/03/03 06:01:08;;;;;;;33.00;19.77;;;1.40;99.90;;;;;;5093169;28;20639;-59
2023/03/03 06:03:34;;;;;;;32.43;20.83;;;1.40;99.90;;;;;;5093256;28;20200;-60
2023/03/03 06:05:59;;;;;;;34.00;22.07;;;1.40;99.90;;;;;;5093046;28;20177;-60
2023/03/03 06:08:25;;;;;;;38.97;22.40;;;1.50;99.90;;;;;;5093222;28;20619;-60
2023/03/03 06:10:51;;;;;;;30.63;19.27;;;1.50;99.90;;;;;;5093168;28;20177;-60
2023/03/03 06:13:16;;;;;;;29.73;19.10;;;1.50;99.90;;;;;;5093107;28;20632;-60
2023/03/03 06:15:42;;;;;;;31.13;18.63;;;1.60;99.90;;;;;;5093077;28;20669;-61
2023/03/03 06:18:08;;;;;;;32.37;18.87;;;1.50;99.90;;;;;;5092894;28;20182;-61
2023/03/03 06:20:34;;;;;;;34.63;20.10;;;1.60;99.90;;;;;;5092823;28;20294;-60
2023/03/03 06:23:00;;;;;;;34.63;18.73;;;1.60;99.90;;;;;;5093014;28;20270;-60
2023/03/03 06:25:26;;;;;;;35.03;21.33;;;1.60;99.90;;;;;;5093011;28;20180;-60
2023/03/03 06:27:51;;;;;;;33.77;20.00;;;1.60;99.90;;;;;;5092986;28;20173;-60
2023/03/03 06:30:17;;;;;;;29.83;17.93;;;1.70;99.90;;;;;;5092161;28;20275;-60
2023/03/03 06:32:43;;;;;;;31.17;17.10;;;1.60;99.90;;;;;;5092786;28;20195;-61
2023/03/03 06:35:09;;;;;;;31.93;19.43;;;1.60;99.90;;;;;;5092578;28;20666;-60
2023/03/03 06:37:35;;;;;;;30.13;19.13;;;1.70;99.90;;;;;;5092372;28;20181;-60
2023/03/03 06:40:01;;;;;;;34.33;19.53;;;1.80;99.90;;;;;;5092628;28;20188;-60
2023/03/03 06:42:26;;;;;;;27.57;18.10;;;1.80;99.90;;;;;;5092874;28;20176;-60
2023/03/03 06:44:52;;;;;;;33.73;19.97;;;1.80;99.90;;;;;;5092701;28;20176;-60
2023/03/03 06:47:18;;;;;;;31.73;19.07;;;1.90;99.90;;;;;;5092697;28;20644;-61
2023/03/03 06:49:43;;;;;;;29.77;19.10;;;1.90;99.90;;;;;;5092735;28;20217;-58
2023/03/03 06:52:13;;;;;;;28.77;18.77;;;1.90;99.90;;;;;;5091511;28;20174;-58
2023/03/03 06:54:39;;;;;;;28.20;19.30;;;1.90;99.90;;;;;;5092744;28;20255;-58
2023/03/03 06:57:34;;;;;;;31.07;18.47;;;1.90;99.90;;;;;;5091423;28;20221;-58
2023/03/03 07:00:15;;;;;;;29.97;19.07;;;2.00;99.90;;;;;;5084776;28;20631;-58
2023/03/03 07:02:41;;;;;;;32.00;19.37;;;2.00;99.90;;;;;;5096463;28;20263;-58
2023/03/03 07:05:14;;;;;;;28.97;18.20;;;1.90;99.90;;;;;;5096410;28;20178;-58
2023/03/03 07:07:40;;;;;;;27.73;18.20;;;2.00;99.90;;;;;;5096194;28;20180;-59
2023/03/03 07:10:22;;;;;;;30.60;18.63;;;2.00;99.90;;;;;;5096216;28;20181;-58
2023/03/03 07:12:48;;;;;;;26.50;17.67;;;2.10;99.90;;;;;;5096081;28;20180;-58
2023/03/03 07:15:23;;;;;;;30.60;18.70;;;2.10;99.90;;;;;;5096037;28;20299;-58
2023/03/03 07:17:53;;;;;;;27.73;17.37;;;2.20;99.90;;;;;;5096082;28;20168;-61
2023/03/03 07:20:22;;;;;;;26.27;16.30;;;2.20;99.90;;;;;;5095995;28;20178;-61
2023/03/03 07:22:49;;;;;;;22.77;15.10;;;2.20;99.90;;;;;;5095722;28;20225;-58
2023/03/03 07:25:30;;;;;;;25.73;16.00;;;2.10;99.90;;;;;;5095755;28;20182;-58
2023/03/03 07:28:06;;;;;;;28.40;17.47;;;2.10;99.90;;;;;;5096188;28;20251;-58
2023/03/03 07:30:32;;;;;;;27.13;16.07;;;2.10;99.90;;;;;;5095972;28;20169;-58
2023/03/03 07:32:58;;;;;;;24.40;15.43;;;2.10;99.90;;;;;;5095737;28;20682;-58
2023/03/03 07:35:43;;;;;;;27.27;15.63;;;2.10;99.90;;;;;;5095593;28;20572;-58
2023/03/03 07:38:23;;;;;;;24.27;15.93;;;2.10;99.90;;;;;;5095798;28;20697;-58
2023/03/03 07:40:51;;;;;;;25.90;15.23;;;2.10;99.90;;;;;;5095468;28;20256;-61
2023/03/03 07:43:40;;;;;;;23.03;14.97;;;2.20;99.90;;;;;;5095166;28;20204;-61
2023/03/03 07:46:09;;;;;;;23.20;14.53;;;2.20;99.90;;;;;;5087892;28;20201;-61
2023/03/03 07:48:39;;;;;;;21.27;13.60;;;2.20;99.90;;;;;;5095300;28;20638;-59
2023/03/03 07:51:18;;;;;;;21.63;14.43;;;2.30;99.90;;;;;;5095460;28;20577;-61
2023/03/03 07:53:43;;;;;;;23.67;14.20;;;2.50;99.90;;;;;;5095225;28;20573;-60
2023/03/03 07:56:32;;;;;;;23.57;14.30;;;2.60;99.90;;;;;;5095151;28;20231;-61
2023/03/03 07:59:01;;;;;;;20.50;13.80;;;2.50;99.90;;;;;;5095581;28;20260;-58
2023/03/03 08:01:31;;;;;;;18.60;13.00;;;2.50;99.90;;;;;;5095312;28;20222;-58
2023/03/03 08:03:57;;;;;;;20.43;13.70;;;2.60;99.90;;;;;;5095217;28;20581;-58
2023/03/03 08:06:34;;;;;;;20.73;13.20;;;2.70;99.90;;;;;;5095160;28;20204;-58
2023/03/03 08:09:35;;;;;;;19.87;13.03;;;2.70;99.90;;;;;;5095319;28;20566;-61
2023/03/03 08:12:14;;;;;;;22.33;14.53;;;2.70;99.90;;;;;;5091153;28;20241;-58
2023/03/03 08:14:40;;;;;;;20.57;13.43;;;2.70;99.90;;;;;;5094967;28;20560;-58
2023/03/03 08:17:22;;;;;;;18.80;12.87;;;2.50;99.90;;;;;;5094796;28;20258;-58
2023/03/03 08:19:52;;;;;;;19.40;13.87;;;2.50;99.90;;;;;;5094966;28;20180;-60
2023/03/03 08:22:35;;;;;;;21.10;12.83;;;2.50;99.90;;;;;;5094682;28;20235;-60
2023/03/03 08:25:00;;;;;;;22.53;14.50;;;2.60;99.90;;;;;;5094830;28;20189;-60
2023/03/03 08:27:26;;;;;;;23.57;13.97;;;2.60;99.90;;;;;;5094652;28;20169;-60
2023/03/03 08:29:52;;;;;;;22.97;14.00;;;2.80;99.90;;;;;;5094520;28;20177;-60
2023/03/03 08:32:18;;;;;;;21.83;13.93;;;2.90;99.90;;;;;;5094788;28;20207;-60
2023/03/03 08:34:44;;;;;;;24.77;14.23;;;2.90;99.90;;;;;;5094693;28;20173;-60
2023/03/03 08:37:09;;;;;;;21.77;14.57;;;3.00;99.90;;;;;;5094372;28;20268;-60
2023/03/03 08:39:35;;;;;;;23.47;15.37;;;3.20;99.90;;;;;;5094534;28;20208;-60
2023/03/03 08:42:00;;;;;;;23.23;15.50;;;3.20;99.90;;;;;;5094464;28;20261;-60
2023/03/03 08:44:26;;;;;;;19.93;15.13;;;3.30;99.90;;;;;;5094234;28;20243;-60
2023/03/03 08:46:52;;;;;;;20.40;13.47;;;3.30;99.90;;;;;;5094486;28;20514;-61
2023/03/03 08:49:18;;;;;;;22.43;13.93;;;3.40;99.90;;;;;;5094305;28;20181;-61
2023/03/03 08:51:43;;;;;;;19.80;13.60;;;3.40;99.90;;;;;;5094216;28;20180;-61
2023/03/03 08:54:09;;;;;;;17.80;12.37;;;3.20;99.90;;;;;;5094207;28;20234;-60
2023/03/03 08:56:35;;;;;;;17.30;11.60;;;3.20;99.90;;;;;;5094012;28;20247;-60
2023/03/03 08:59:00;;;;;;;17.00;11.73;;;3.40;99.90;;;;;;5094052;28;20231;-61
2023/03/03 09:01:26;;;;;;;17.33;12.10;;;3.30;99.90;;;;;;5094198;28;20189;-60
2023/03/03 09:03:52;;;;;;;20.07;12.93;;;3.30;99.90;;;;;;5093941;28;20207;-60
2023/03/03 09:06:17;;;;;;;19.83;12.63;;;3.30;99.90;;;;;;5093955;28;20235;-58
2023/03/03 09:08:43;;;;;;;17.60;12.60;;;3.40;99.90;;;;;;5092737;28;20657;-60
2023/03/03 09:11:13;;;;;;;17.30;11.43;;;3.20;99.90;;;;;;5093845;28;20540;-60
2023/03/03 09:13:38;;;;;;;19.47;13.10;;;3.30;99.90;;;;;;5093736;28;20260;-60
2023/03/03 09:16:13;;;;;;;19.93;12.33;;;3.40;99.90;;;;;;5093975;28;20304;-60
2023/03/03 09:18:39;;;;;;;19.83;13.97;;;3.50;99.90;;;;;;5094039;28;20204;-58
2023/03/03 09:21:19;;;;;;;18.57;13.07;;;3.50;99.90;;;;;;5094132;28;20208;-58
2023/03/03 09:24:15;;;;;;;21.17;14.33;;;3.60;99.90;;;;;;5093321;28;20312;-60
2023/03/03 09:26:47;;;;;;;25.33;14.90;;;3.70;99.90;;;;;;5093567;28;20212;-60
2023/03/03 09:29:13;;;;;;;22.63;14.20;;;3.60;99.90;;;;;;5093491;28;20177;-60
2023/03/03 09:31:50;;;;;;;21.57;15.00;;;3.60;99.90;;;;;;5093534;28;20250;-61
2023/03/03 09:34:35;;;;;;;18.70;12.60;;;3.60;99.90;;;;;;5093468;28;20249;-61
2023/03/03 09:37:11;;;;;;;17.53;12.63;;;3.50;99.90;;;;;;5093345;28;20665;-60
2023/03/03 09:39:36;;;;;;;17.97;12.73;;;3.50;99.90;;;;;;5092307;28;20174;-60
2023/03/03 09:42:41;;;;;;;18.70;12.37;;;3.60;99.90;;;;;;5093463;28;20169;-60
2023/03/03 09:45:14;;;;;;;17.50;11.37;;;3.50;99.90;;;;;;5093563;28;20184;-60
2023/03/03 09:48:18;;;;;;;17.47;11.63;;;3.60;99.90;;;;;;5093404;28;20185;-60
2023/03/03 09:51:00;;;;;;;17.80;11.63;;;3.80;99.90;;;;;;5091932;28;20215;-60
2023/03/03 09:54:03;;;;;;;19.03;12.67;;;3.70;99.90;;;;;;5092686;28;20177;-60
2023/03/03 09:56:38;;;;;;;18.57;11.90;;;3.90;99.90;;;;;;5092003;28;20204;-60
2023/03/03 09:59:20;;;;;;;18.37;12.17;;;3.80;99.90;;;;;;5093195;28;20177;-60
2023/03/03 10:02:24;;;;;;;21.30;11.17;;;3.90;99.90;;;;;;5092612;28;20173;-60
2023/03/03 10:05:12;;;;;;;16.87;11.27;;;3.80;99.90;;;;;;5093197;28;20593;-60
2023/03/03 10:08:22;;;;;;;16.97;10.93;;;3.90;99.90;;;;;;5092008;28;20571;-60
2023/03/03 10:11:00;;;;;;;18.27;11.73;;;3.90;99.90;;;;;;5081426;28;20193;-59
2023/03/03 10:13:59;;;;;;;17.37;10.80;;;3.90;99.90;;;;;;5092545;28;20166;-60
2023/03/03 10:16:35;;;;;;;14.83;10.53;;;3.80;99.90;;;;;;5092859;28;20288;-60
2023/03/03 10:19:20;;;;;;;17.02;11.07;;;3.90;99.90;;;;;;5092930;28;20179;-60
2023/03/03 10:22:08;;;;;;;15.45;11.18;;;4.00;99.90;;;;;;5092842;28;20224;-61
2023/03/03 10:24:46;;;;;;;16.17;11.43;;;4.10;99.90;;;;;;5092591;28;20577;-60
2023/03/03 10:27:22;;;;;;;17.90;11.50;;;4.10;99.90;;;;;;5092909;28;20173;-61
2023/03/03 10:30:10;;;;;;;16.40;11.13;;;4.10;99.90;;;;;;5092603;28;20188;-60
2023/03/03 10:32:58;;;;;;;18.15;10.73;;;4.30;99.90;;;;;;5091780;28;20257;-60
2023/03/03 10:35:46;;;;;;;19.33;11.52;;;4.40;99.90;;;;;;5095116;28;20209;-61
2023/03/03 10:38:29;;;;;;;14.10;10.50;;;4.40;99.90;;;;;;5096925;28;20551;-60
2023/03/03 10:41:16;;;;;;;16.90;11.37;;;4.40;99.90;;;;;;5096655;28;20165;-60
2023/03/03 10:43:58;;;;;;;14.97;10.47;;;4.40;99.90;;;;;;5095488;28;20544;-60
2023/03/03 10:46:36;;;;;;;16.90;11.45;;;4.50;99.90;;;;;;5096847;28;20181;-60
2023/03/03 10:49:27;;;;;;;18.50;12.98;;;4.50;99.90;;;;;;5096625;28;20172;-60
2023/03/03 10:52:02;;;;;;;15.30;10.43;;;4.50;99.90;;;;;;5096819;28;20177;-60
2023/03/03 10:54:55;;;;;;;16.83;10.27;;;4.50;99.90;;;;;;5096197;28;20181;-61
2023/03/03 10:57:37;;;;;;;16.53;10.57;;;4.80;99.90;;;;;;5096489;28;20274;-60
2023/03/03 11:00:15;;;;;;;14.77;9.98;;;4.90;99.90;;;;;;5095111;28;20169;-58
2023/03/03 11:03:12;;;;;;;12.18;9.27;;;5.00;99.90;;;;;;5096174;28;20173;-58
2023/03/03 11:05:47;;;;;;;14.00;9.63;;;5.00;99.90;;;;;;5096278;28;20181;-58
2023/03/03 11:08:37;;;;;;;14.38;9.68;;;5.30;99.90;;;;;;5096072;28;20647;-58
2023/03/03 11:11:22;;;;;;;15.43;11.77;;;5.20;99.90;;;;;;5096272;28;20192;-60
2023/03/03 11:13:58;;;;;;;16.67;11.65;;;5.30;99.90;;;;;;5096193;28;20628;-60
2023/03/03 11:16:54;;;;;;;16.92;12.02;;;5.40;99.90;;;;;;5096013;28;20555;-58
2023/03/03 11:19:56;;;;;;;20.10;13.00;;;5.40;99.90;;;;;;5096009;28;20636;-58
2023/03/03 11:22:38;;;;;;;15.55;11.45;;;5.50;99.90;;;;;;5096053;28;20232;-58
2023/03/03 11:25:43;;;;;;;12.15;9.30;;;5.50;99.90;;;;;;5095805;28;20223;-58
2023/03/03 11:28:20;;;;;;;11.82;9.15;;;5.70;99.90;;;;;;5095824;28;20189;-58
2023/03/03 11:31:27;;;;;;;16.38;10.07;;;5.90;99.90;;;;;;5095842;28;20188;-58
2023/03/03 11:33:56;;;;;;;15.77;9.77;;;5.80;99.90;;;;;;5080993;28;20536;-58
2023/03/03 11:36:37;;;;;;;11.82;9.18;;;5.90;99.90;;;;;;5095674;28;20208;-60
2023/03/03 11:39:07;;;;;;;11.57;8.68;;;5.80;99.90;;;;;;5095889;28;20226;-58
2023/03/03 11:41:45;;;;;;;12.77;9.60;;;5.80;99.90;;;;;;5095597;28;20177;-59
2023/03/03 11:44:32;;;;;;;13.75;8.73;;;5.90;99.90;;;;;;5095702;28;20254;-58
2023/03/03 11:47:22;;;;;;;11.13;8.30;;;5.80;99.90;;;;;;5095424;28;20212;-59
2023/03/03 11:50:10;;;;;;;14.38;9.10;;;5.70;99.90;;;;;;5095445;28;20206;-58
2023/03/03 11:53:14;;;;;;;15.48;10.35;;;6.00;99.90;;;;;;5095298;28;20517;-58
2023/03/03 11:55:44;;;;;;;12.50;8.02;;;5.80;99.90;;;;;;5095349;28;20748;-58
2023/03/03 11:58:17;;;;;;;12.65;8.30;;;5.80;99.90;;;;;;5095556;28;20733;-58
2023/03/03 12:00:58;;;;;;;11.18;8.93;;;6.20;99.90;;;;;;5095281;28;20222;-58
2023/03/03 12:03:34;;;;;;;14.05;10.73;;;6.20;99.90;;;;;;5095348;28;20177;-61
2023/03/03 12:06:24;;;;;;;12.00;9.05;;;6.40;99.90;;;;;;5095059;28;20189;-59
2023/03/03 12:08:59;;;;;;;11.80;8.93;;;6.20;99.90;;;;;;5095096;28;20260;-58
2023/03/03 12:11:26;;;;;;;11.20;7.75;;;6.20;99.90;;;;;;5095318;28;20547;-58
2023/03/03 12:14:10;;;;;;;11.40;8.85;;;6.10;99.90;;;;;;5095002;28;20599;-58
2023/03/03 12:17:05;;;;;;;11.85;8.90;;;5.90;99.90;;;;;;5094893;28;20196;-58
2023/03/03 12:19:34;;;;;;;12.32;9.13;;;6.10;99.90;;;;;;5095051;28;20178;-58
2023/03/03 12:22:22;;;;;;;11.18;8.73;;;6.20;99.90;;;;;;5094792;28;20226;-58
2023/03/03 12:25:06;;;;;;;11.50;8.73;;;6.30;99.90;;;;;;5094673;28;20177;-58
2023/03/03 12:27:53;;;;;;;10.52;8.68;;;6.40;99.90;;;;;;5094723;28;20318;-60
2023/03/03 12:30:28;;;;;;;12.13;7.85;;;6.60;99.90;;;;;;5094642;28;20185;-60
2023/03/03 12:33:06;;;;;;;11.20;8.43;;;6.40;99.90;;;;;;5094470;28;20193;-59
2023/03/03 12:35:43;;;;;;;13.40;11.00;;;6.40;99.90;;;;;;5093117;28;20201;-62
2023/03/03 12:38:53;;;;;;;12.15;10.25;;;6.60;99.90;;;;;;5094471;28;20191;-58
2023/03/03 12:41:50;;;;;;;11.93;8.93;;;6.60;99.90;;;;;;5083576;28;20185;-60
2023/03/03 12:44:22;;;;;;;9.85;7.57;;;6.50;99.90;;;;;;5094322;28;20177;-60
2023/03/03 12:46:59;;;;;;;10.55;7.88;;;6.50;99.90;;;;;;5094325;28;20173;-60
2023/03/03 12:49:44;;;;;;;11.77;7.40;;;6.40;99.90;;;;;;5094131;28;20181;-60
2023/03/03 12:52:33;;;;;;;11.98;7.97;;;6.40;99.90;;;;;;5093684;28;20666;-58
2023/03/03 12:55:34;;;;;;;9.25;7.72;;;6.30;99.90;;;;;;5094373;28;20178;-58
2023/03/03 12:58:26;;;;;;;8.93;7.22;;;6.40;99.90;;;;;;5093580;28;20188;-58
2023/03/03 13:01:10;;;;;;;8.20;6.85;;;6.70;99.90;;;;;;5093977;28;20188;-58
2023/03/03 13:04:03;;;;;;;8.95;6.63;;;6.80;99.90;;;;;;5094219;28;20219;-58
2023/03/03 13:06:50;;;;;;;12.10;7.82;;;6.80;99.90;;;;;;5093906;28;20528;-58
2023/03/03 13:09:31;;;;;;;9.68;7.38;;;7.00;99.90;;;;;;5093886;28;20166;-60